createdAt,value
2017-09-28T00:00:41.721Z,29.50
2017-09-28T00:03:08.396Z,32.60
2017-09-28T00:05:35.076Z,29.60
2017-09-28T00:08:01.730Z,28.97
2017-09-28T00:10:28.437Z,33.60
2017-09-28T00:12:55.091Z,31.60
2017-09-28T00:15:21.735Z,32.40
2017-09-28T00:17:48.424Z,30.67
2017-09-28T00:20:15.078Z,27.80
2017-09-28T00:22:41.719Z,29.13
2017-09-28T00:25:08.400Z,30.63
2017-09-28T00:27:35.266Z,34.40
2017-09-28T00:30:01.921Z,35.87
2017-09-28T00:32:28.576Z,37.87
2017-09-28T00:34:55.265Z,37.07
2017-09-28T00:37:21.908Z,37.40
2017-09-28T00:39:48.612Z,35.67
2017-09-28T00:42:15.270Z,36.60
2017-09-28T00:44:41.922Z,38.90
2017-09-28T00:47:08.725Z,34.97
2017-09-28T00:49:35.383Z,37.40
2017-09-28T00:52:02.058Z,33.87
2017-09-28T00:54:28.704Z,34.53
2017-09-28T00:56:55.569Z,35.40
2017-09-28T00:59:22.539Z,39.00
2017-09-28T01:01:49.189Z,39.73
2017-09-28T01:04:15.849Z,39.67
2017-09-28T01:06:42.511Z,40.10
2017-09-28T01:09:09.183Z,38.80
2017-09-28T01:11:35.828Z,35.00
2017-09-28T01:14:02.480Z,33.93
2017-09-28T01:16:29.410Z,27.37
2017-09-28T01:18:56.057Z,30.90
2017-09-28T01:21:22.709Z,31.10
2017-09-28T01:23:49.492Z,35.90
2017-09-28T01:26:16.140Z,36.90
2017-09-28T01:28:42.788Z,34.33
2017-09-28T01:31:09.454Z,34.30
2017-09-28T01:33:36.097Z,31.53
2017-09-28T01:36:02.778Z,35.03
2017-09-28T01:38:29.464Z,36.67
2017-09-28T01:40:56.143Z,38.33
2017-09-28T01:43:22.811Z,31.77
2017-09-28T01:45:49.484Z,30.63
2017-09-28T01:48:16.557Z,32.90
2017-09-28T01:50:43.209Z,32.77
2017-09-28T01:53:09.867Z,31.43
2017-09-28T01:55:36.640Z,33.40
2017-09-28T01:58:03.297Z,36.37
2017-09-28T02:00:29.943Z,33.40
2017-09-28T02:02:57.221Z,32.07
2017-09-28T02:05:23.891Z,30.90
2017-09-28T02:07:50.552Z,33.83
2017-09-28T02:10:17.228Z,35.30
2017-09-28T02:12:43.906Z,37.63
2017-09-28T02:15:10.578Z,38.00
2017-09-28T02:17:37.224Z,36.17
2017-09-28T02:20:03.868Z,35.20
2017-09-28T02:22:30.539Z,36.20
2017-09-28T02:24:57.185Z,38.47
2017-09-28T02:27:23.832Z,36.63
2017-09-28T02:29:50.504Z,33.90
2017-09-28T02:32:17.165Z,31.47
2017-09-28T02:34:44.169Z,31.47
2017-09-28T02:37:10.815Z,32.00
2017-09-28T02:39:37.464Z,31.07
2017-09-28T02:42:04.133Z,34.67
2017-09-28T02:44:30.807Z,37.50
2017-09-28T02:46:57.455Z,36.20
2017-09-28T02:49:24.124Z,35.27
2017-09-28T02:51:50.775Z,35.33
2017-09-28T02:54:17.693Z,31.37
2017-09-28T02:56:44.338Z,33.30
2017-09-28T02:59:11.012Z,34.50
2017-09-28T03:01:37.679Z,37.17
2017-09-28T03:04:04.769Z,39.90
2017-09-28T03:06:31.431Z,40.50
2017-09-28T03:08:58.088Z,36.83
2017-09-28T03:11:25.206Z,35.23
2017-09-28T03:13:51.853Z,33.43
2017-09-28T03:16:18.831Z,31.93
2017-09-28T03:18:45.502Z,33.60
2017-09-28T03:21:12.183Z,34.53
2017-09-28T03:23:38.852Z,34.97
2017-09-28T03:26:05.523Z,35.67
2017-09-28T03:28:32.199Z,35.63
2017-09-28T03:30:59.155Z,35.00
2017-09-28T03:33:25.894Z,38.27
2017-09-28T03:35:52.558Z,42.53
2017-09-28T03:38:19.234Z,43.57
2017-09-28T03:40:45.880Z,44.30
2017-09-28T03:43:12.562Z,46.57
2017-09-28T03:45:39.208Z,46.60
2017-09-28T03:48:05.884Z,45.17
2017-09-28T03:50:32.526Z,41.47
2017-09-28T03:52:59.527Z,41.77
2017-09-28T03:55:26.172Z,43.57
2017-09-28T03:57:52.821Z,41.40
2017-09-28T04:00:19.496Z,63.40
2017-09-28T04:02:46.172Z,39.40
2017-09-28T04:05:12.850Z,35.60
2017-09-28T04:07:39.496Z,38.90
2017-09-28T04:10:06.163Z,37.87
2017-09-28T04:12:32.832Z,41.30
2017-09-28T04:14:59.478Z,40.30
2017-09-28T04:17:26.446Z,40.67
2017-09-28T04:19:53.090Z,43.50
2017-09-28T04:22:19.759Z,48.93
2017-09-28T04:24:46.437Z,47.27
2017-09-28T04:27:13.091Z,47.57
2017-09-28T04:29:39.768Z,50.97
2017-09-28T04:32:06.455Z,49.70
2017-09-28T04:34:33.103Z,45.80
2017-09-28T04:36:59.783Z,45.80
2017-09-28T04:39:26.440Z,43.53
2017-09-28T04:41:53.112Z,46.37
2017-09-28T04:44:19.777Z,45.43
2017-09-28T04:46:46.460Z,44.80
2017-09-28T04:49:13.113Z,40.80
2017-09-28T04:51:39.768Z,45.57
2017-09-28T04:54:06.444Z,46.30
2017-09-28T04:56:33.088Z,46.27
2017-09-28T04:58:59.732Z,39.47
2017-09-28T05:01:26.397Z,43.40
2017-09-28T05:03:53.056Z,48.57
2017-09-28T05:06:19.734Z,46.47
2017-09-28T05:08:46.380Z,47.50
2017-09-28T05:11:13.024Z,50.17
2017-09-28T05:13:39.797Z,52.80
2017-09-28T05:16:06.448Z,52.27
2017-09-28T05:18:33.093Z,57.13
2017-09-28T05:20:59.784Z,55.43
2017-09-28T05:23:26.479Z,58.87
2017-09-28T05:25:53.139Z,52.30
2017-09-28T05:28:19.824Z,54.97
2017-09-28T05:30:46.526Z,54.17
2017-09-28T05:33:13.176Z,51.70
2017-09-28T05:35:39.869Z,50.90
2017-09-28T05:38:06.516Z,51.10
2017-09-28T05:40:33.168Z,72.93
2017-09-28T05:42:59.862Z,53.70
2017-09-28T05:45:26.520Z,52.37
2017-09-28T05:47:53.184Z,52.37
2017-09-28T05:50:20.131Z,52.70
2017-09-28T05:52:46.797Z,61.73
2017-09-28T05:55:13.452Z,53.27
2017-09-28T05:57:40.132Z,56.30
2017-09-28T06:00:07.098Z,56.53
2017-09-28T06:02:33.772Z,54.90
2017-09-28T06:05:00.423Z,55.50
2017-09-28T06:07:27.083Z,58.90
2017-09-28T06:09:53.866Z,53.17
2017-09-28T06:12:20.791Z,52.27
2017-09-28T06:14:47.463Z,54.20
2017-09-28T06:17:14.140Z,58.63
2017-09-28T06:19:40.790Z,49.40
2017-09-28T06:22:07.447Z,50.40
2017-09-28T06:24:34.121Z,48.10
2017-09-28T06:27:00.789Z,43.07
2017-09-28T06:29:27.461Z,45.20
2017-09-28T06:31:54.116Z,45.57
2017-09-28T06:34:21.192Z,51.47
2017-09-28T06:36:48.356Z,50.97
2017-09-28T06:39:15.000Z,50.60
2017-09-28T06:41:41.672Z,47.50
2017-09-28T06:44:08.321Z,52.30
2017-09-28T06:46:34.996Z,51.10
2017-09-28T06:49:01.652Z,46.13
2017-09-28T06:51:28.340Z,43.43
2017-09-28T06:53:54.997Z,40.70
2017-09-28T06:56:21.877Z,43.07
2017-09-28T06:58:48.536Z,38.80
2017-09-28T07:01:15.192Z,36.23
2017-09-28T07:03:41.866Z,40.77
2017-09-28T07:06:08.548Z,37.87
2017-09-28T07:08:35.220Z,34.30
2017-09-28T07:11:01.868Z,36.80
2017-09-28T07:13:28.538Z,36.57
2017-09-28T07:15:55.190Z,32.10
2017-09-28T07:18:22.779Z,28.67
2017-09-28T07:20:49.443Z,30.57
2017-09-28T07:23:16.091Z,26.13
2017-09-28T07:25:42.764Z,27.37
2017-09-28T07:28:09.415Z,28.50
2017-09-28T07:30:36.089Z,28.60
2017-09-28T07:33:02.968Z,29.90
2017-09-28T07:35:29.610Z,33.53
2017-09-28T07:37:56.261Z,29.07
2017-09-28T07:40:22.936Z,28.17
2017-09-28T07:42:49.623Z,27.47
2017-09-28T07:45:16.634Z,30.20
2017-09-28T07:47:43.281Z,31.27
2017-09-28T07:50:09.944Z,30.83
2017-09-28T07:52:36.867Z,32.23
2017-09-28T07:55:03.524Z,31.00
2017-09-28T07:57:30.173Z,29.90
2017-09-28T07:59:56.844Z,30.07
2017-09-28T08:02:23.512Z,30.23
2017-09-28T08:04:50.162Z,31.67
2017-09-28T08:07:17.019Z,30.83
2017-09-28T08:09:43.668Z,33.00
2017-09-28T08:12:10.328Z,33.80
2017-09-28T08:14:37.024Z,36.70
2017-09-28T08:17:03.668Z,38.23
2017-09-28T08:19:30.313Z,35.90
2017-09-28T08:21:56.996Z,36.60
2017-09-28T08:24:23.647Z,37.27
2017-09-28T08:26:50.296Z,32.57
2017-09-28T08:29:16.960Z,33.80
2017-09-28T08:31:43.929Z,34.57
2017-09-28T08:34:10.593Z,33.67
2017-09-28T08:36:37.259Z,36.40
2017-09-28T08:39:03.945Z,33.30
2017-09-28T08:41:30.599Z,34.43
2017-09-28T08:43:57.268Z,34.60
2017-09-28T08:46:23.937Z,36.33
2017-09-28T08:48:50.604Z,34.80
2017-09-28T08:51:17.253Z,36.17
2017-09-28T08:53:44.074Z,36.77
2017-09-28T08:56:10.728Z,35.90
2017-09-28T08:58:37.371Z,33.60
2017-09-28T09:01:04.042Z,35.50
2017-09-28T09:03:30.688Z,34.93
2017-09-28T09:05:57.330Z,35.63
2017-09-28T09:08:24.001Z,35.03
2017-09-28T09:10:50.673Z,34.20
2017-09-28T09:13:17.372Z,33.83
2017-09-28T09:15:44.047Z,33.70
2017-09-28T09:18:10.723Z,30.70
2017-09-28T09:20:37.367Z,31.70
2017-09-28T09:23:04.044Z,28.80
2017-09-28T09:25:30.705Z,30.47
2017-09-28T09:27:57.388Z,32.27
2017-09-28T09:30:24.087Z,30.17
2017-09-28T09:32:50.737Z,28.10
2017-09-28T09:35:17.427Z,26.37
2017-09-28T09:37:44.099Z,28.23
2017-09-28T09:40:10.748Z,26.07
2017-09-28T09:42:37.422Z,24.43
2017-09-28T09:45:04.385Z,24.87
2017-09-28T09:47:31.049Z,27.03
2017-09-28T09:49:57.693Z,26.40
2017-09-28T09:52:24.373Z,26.47
2017-09-28T09:54:51.053Z,23.43
2017-09-28T09:57:17.969Z,22.23
2017-09-28T09:59:44.617Z,21.47
2017-09-28T10:02:11.265Z,18.80
2017-09-28T10:04:37.953Z,20.67
2017-09-28T10:07:13.402Z,22.37
2017-09-28T10:09:42.877Z,22.60
2017-09-28T10:12:14.387Z,20.97
2017-09-28T10:14:44.049Z,23.17
2017-09-28T10:17:10.713Z,21.23
2017-09-28T10:19:37.385Z,22.60
2017-09-28T10:22:04.063Z,20.93
2017-09-28T10:24:30.708Z,20.53
2017-09-28T10:26:57.376Z,22.10
2017-09-28T10:29:24.043Z,19.33
2017-09-28T10:31:50.691Z,18.70
2017-09-28T10:34:17.577Z,19.50
2017-09-28T10:36:44.229Z,21.23
2017-09-28T10:39:10.876Z,17.80
2017-09-28T10:41:37.544Z,16.83
2017-09-28T10:44:04.225Z,17.37
2017-09-28T10:46:30.923Z,18.53
2017-09-28T10:48:57.600Z,19.83
2017-09-28T10:51:24.252Z,17.30
2017-09-28T10:53:50.907Z,16.90
2017-09-28T10:56:17.580Z,18.40
2017-09-28T10:58:44.242Z,15.60
2017-09-28T11:01:11.045Z,16.30
2017-09-28T11:03:37.697Z,14.63
2017-09-28T11:06:04.340Z,16.00
2017-09-28T11:08:31.018Z,13.60
2017-09-28T11:10:57.688Z,13.00
2017-09-28T11:13:24.355Z,14.20
2017-09-28T11:15:51.028Z,14.67
2017-09-28T11:18:17.674Z,15.33
2017-09-28T11:20:44.345Z,13.93
2017-09-28T11:23:11.120Z,14.30
2017-09-28T11:25:37.773Z,16.90
2017-09-28T11:28:04.416Z,14.60
2017-09-28T11:30:31.091Z,13.53
2017-09-28T11:32:57.748Z,12.20
2017-09-28T11:35:24.417Z,14.83
2017-09-28T11:37:51.087Z,13.47
2017-09-28T11:40:17.747Z,13.17
2017-09-28T11:42:44.420Z,11.30
2017-09-28T11:45:11.062Z,11.00
2017-09-28T11:47:37.740Z,11.40
2017-09-28T11:50:04.397Z,11.27
2017-09-28T11:52:31.055Z,12.17
2017-09-28T11:54:57.746Z,11.60
2017-09-28T11:57:24.404Z,11.90
2017-09-28T11:59:51.052Z,12.00
2017-09-28T12:02:17.721Z,10.17
2017-09-28T12:04:44.371Z,11.10
2017-09-28T12:07:11.253Z,9.47
2017-09-28T12:09:37.903Z,9.40
2017-09-28T12:12:04.543Z,8.90
2017-09-28T12:14:31.212Z,8.50
2017-09-28T12:16:57.857Z,9.07
2017-09-28T12:19:24.531Z,9.00
2017-09-28T12:21:51.176Z,10.57
2017-09-28T12:24:17.821Z,8.23
2017-09-28T12:26:44.784Z,8.40
2017-09-28T12:29:11.430Z,8.93
2017-09-28T12:31:38.075Z,9.23
2017-09-28T12:34:04.740Z,9.03
2017-09-28T12:36:31.392Z,8.30
2017-09-28T12:38:58.398Z,7.67
2017-09-28T12:41:25.088Z,8.00
2017-09-28T12:43:51.736Z,12.30
2017-09-28T12:46:18.396Z,8.50
2017-09-28T12:48:45.044Z,7.10
2017-09-28T12:51:11.913Z,7.60
2017-09-28T12:53:38.553Z,8.93
2017-09-28T12:56:05.225Z,8.60
2017-09-28T12:58:31.884Z,7.33
2017-09-28T13:00:58.549Z,6.53
2017-09-28T13:03:25.219Z,8.40
2017-09-28T13:05:51.860Z,7.17
2017-09-28T13:08:18.538Z,7.63
2017-09-28T13:10:45.181Z,9.37
2017-09-28T13:13:11.827Z,8.17
2017-09-28T13:15:38.505Z,8.63
2017-09-28T13:18:05.163Z,7.10
2017-09-28T13:20:31.836Z,9.03
2017-09-28T13:22:59.062Z,6.40
2017-09-28T13:25:25.701Z,7.60
2017-09-28T13:27:52.348Z,8.43
2017-09-28T13:30:19.031Z,6.33
2017-09-28T13:32:45.668Z,7.83
2017-09-28T13:35:12.340Z,6.93
2017-09-28T13:37:39.311Z,8.57
2017-09-28T13:40:05.960Z,8.40
2017-09-28T13:42:32.621Z,8.70
2017-09-28T13:44:59.284Z,7.70
2017-09-28T13:47:25.929Z,6.60
2017-09-28T13:49:52.594Z,7.50
2017-09-28T13:52:19.265Z,6.97
2017-09-28T13:54:45.937Z,10.77
2017-09-28T13:57:12.576Z,8.20
2017-09-28T13:59:39.223Z,8.90
2017-09-28T14:02:05.891Z,9.00
2017-09-28T14:04:32.557Z,9.37
2017-09-28T14:06:59.220Z,8.60
2017-09-28T14:09:25.903Z,8.40
2017-09-28T14:11:52.550Z,9.83
2017-09-28T14:14:19.529Z,11.27
2017-09-28T14:16:46.180Z,8.10
2017-09-28T14:19:12.845Z,9.33
2017-09-28T14:21:39.529Z,10.60
2017-09-28T14:24:06.209Z,10.30
2017-09-28T14:26:32.880Z,9.60
2017-09-28T14:28:59.523Z,8.87
2017-09-28T14:31:26.193Z,8.10
2017-09-28T14:33:52.844Z,8.20
2017-09-28T14:36:20.399Z,9.40
2017-09-28T14:38:47.103Z,8.87
2017-09-28T14:41:13.753Z,8.50
2017-09-28T14:43:40.416Z,9.27
2017-09-28T14:46:07.125Z,9.00
2017-09-28T14:48:34.157Z,11.67
2017-09-28T14:51:00.812Z,11.20
2017-09-28T14:53:27.456Z,9.70
2017-09-28T14:55:54.126Z,9.93
2017-09-28T14:58:20.772Z,9.60
2017-09-28T15:00:47.437Z,9.53
2017-09-28T15:03:14.091Z,10.80
2017-09-28T15:05:40.761Z,13.50
2017-09-28T15:08:07.429Z,10.90
2017-09-28T15:10:34.085Z,9.60
2017-09-28T15:13:00.966Z,9.10
2017-09-28T15:15:27.624Z,8.20
2017-09-28T15:17:54.288Z,6.63
2017-09-28T15:20:20.928Z,9.07
2017-09-28T15:22:47.596Z,9.20
2017-09-28T15:25:14.255Z,8.03
2017-09-28T15:27:41.118Z,7.93
2017-09-28T15:30:07.770Z,9.00
2017-09-28T15:32:34.441Z,17.17
2017-09-28T15:35:01.086Z,9.33
2017-09-28T15:37:27.765Z,8.50
2017-09-28T15:39:54.539Z,8.27
2017-09-28T15:42:21.577Z,8.77
2017-09-28T15:44:48.219Z,8.70
2017-09-28T15:47:14.896Z,11.97
2017-09-28T15:49:41.536Z,9.67
2017-09-28T15:52:08.360Z,11.07
2017-09-28T15:54:35.004Z,11.00
2017-09-28T15:57:01.732Z,10.50
2017-09-28T15:59:28.425Z,12.97
2017-09-28T16:01:55.093Z,10.90
2017-09-28T16:04:21.761Z,10.50
2017-09-28T16:06:48.408Z,9.63
2017-09-28T16:09:15.071Z,11.20
2017-09-28T16:11:41.725Z,9.50
2017-09-28T16:14:08.389Z,9.80
2017-09-28T16:16:35.361Z,9.67
2017-09-28T16:19:02.109Z,10.70
2017-09-28T16:21:28.761Z,11.90
2017-09-28T16:23:55.430Z,12.87
2017-09-28T16:26:22.110Z,13.97
2017-09-28T16:28:48.875Z,13.80
2017-09-28T16:31:15.549Z,12.50
2017-09-28T16:33:42.201Z,14.77
2017-09-28T16:36:08.882Z,13.87
2017-09-28T16:38:35.542Z,13.87
2017-09-28T16:41:02.205Z,16.23
2017-09-28T16:43:28.888Z,19.30
2017-09-28T16:45:55.548Z,17.17
2017-09-28T16:48:22.248Z,21.33
2017-09-28T16:50:48.909Z,20.93
2017-09-28T16:53:15.573Z,19.80
2017-09-28T16:55:42.255Z,19.47
2017-09-28T16:58:08.903Z,22.77
2017-09-28T17:00:35.818Z,21.13
2017-09-28T17:03:02.463Z,21.47
2017-09-28T17:05:29.111Z,22.13
2017-09-28T17:07:55.800Z,21.63
2017-09-28T17:10:22.461Z,22.03
2017-09-28T17:12:49.151Z,22.00
2017-09-28T17:15:15.813Z,21.13
2017-09-28T17:17:42.489Z,21.73
2017-09-28T17:20:09.159Z,20.47
2017-09-28T17:22:35.817Z,21.57
2017-09-28T17:25:02.595Z,20.27
2017-09-28T17:27:29.252Z,20.73
2017-09-28T17:29:55.903Z,19.87
2017-09-28T17:32:22.576Z,20.60
2017-09-28T17:34:49.236Z,19.93
2017-09-28T17:37:15.913Z,19.97
2017-09-28T17:39:42.561Z,19.33
2017-09-28T17:42:09.425Z,18.33
2017-09-28T17:44:36.075Z,19.17
2017-09-28T17:47:02.731Z,16.90
2017-09-28T17:49:29.644Z,18.90
2017-09-28T17:51:56.399Z,16.47
2017-09-28T17:54:23.244Z,17.20
2017-09-28T17:56:49.916Z,17.10
2017-09-28T17:59:16.584Z,16.60
2017-09-28T18:01:43.267Z,17.13
2017-09-28T18:04:09.909Z,16.40
2017-09-28T18:06:36.912Z,17.37
2017-09-28T18:09:03.556Z,15.37
2017-09-28T18:11:30.212Z,17.80
2017-09-28T18:13:56.889Z,16.67
2017-09-28T18:16:23.729Z,19.80
2017-09-28T18:18:50.377Z,18.37
2017-09-28T18:21:17.029Z,18.10
2017-09-28T18:23:43.703Z,19.30
2017-09-28T18:26:10.360Z,17.80
2017-09-28T18:28:37.064Z,20.47
2017-09-28T18:31:03.720Z,20.53
2017-09-28T18:33:30.621Z,21.70
2017-09-28T18:35:57.300Z,22.80
2017-09-28T18:38:23.957Z,20.63
2017-09-28T18:40:50.629Z,20.33
2017-09-28T18:43:17.388Z,19.73
2017-09-28T18:45:44.040Z,22.50
2017-09-28T18:48:10.719Z,19.20
2017-09-28T18:50:37.401Z,20.97
2017-09-28T18:53:04.086Z,20.07
2017-09-28T18:55:30.736Z,20.13
2017-09-28T18:57:57.421Z,21.50
2017-09-28T19:00:24.102Z,18.73
2017-09-28T19:02:50.774Z,22.00
2017-09-28T19:05:17.421Z,22.90
2017-09-28T19:07:44.128Z,23.17
2017-09-28T19:10:10.894Z,19.43
2017-09-28T19:12:37.543Z,20.30
2017-09-28T19:15:04.234Z,19.40
2017-09-28T19:17:30.924Z,21.30
2017-09-28T19:19:57.615Z,20.00
2017-09-28T19:22:24.276Z,22.83
2017-09-28T19:24:50.956Z,21.67
2017-09-28T19:27:17.607Z,22.03
2017-09-28T19:29:44.378Z,20.73
2017-09-28T19:32:11.060Z,21.83
2017-09-28T19:34:37.729Z,20.67
2017-09-28T19:37:04.420Z,21.37
2017-09-28T19:39:31.292Z,19.30
2017-09-28T19:41:57.976Z,19.80
2017-09-28T19:44:24.838Z,19.90
2017-09-28T19:46:51.511Z,22.57
2017-09-28T19:49:18.182Z,20.57
2017-09-28T19:51:44.863Z,27.17
2017-09-28T19:54:11.528Z,24.93
2017-09-28T19:56:38.205Z,24.10
2017-09-28T19:59:04.849Z,23.20
2017-09-28T20:01:31.527Z,24.23
2017-09-28T20:03:58.193Z,28.17
2017-09-28T20:06:24.859Z,23.90
2017-09-28T20:08:51.516Z,23.63
2017-09-28T20:11:18.198Z,26.80
2017-09-28T20:13:44.980Z,30.90
2017-09-28T20:16:11.629Z,26.77
2017-09-28T20:18:38.281Z,26.23
2017-09-28T20:21:04.959Z,25.70
2017-09-28T20:23:31.632Z,26.27
2017-09-28T20:25:58.288Z,27.37
2017-09-28T20:28:24.984Z,29.70
2017-09-28T20:30:51.657Z,26.50
2017-09-28T20:33:18.315Z,27.13
2017-09-28T20:35:44.994Z,26.67
2017-09-28T20:38:11.681Z,27.70
2017-09-28T20:40:38.359Z,26.37
2017-09-28T20:43:05.009Z,25.73
2017-09-28T20:45:31.680Z,27.20
2017-09-28T20:47:58.372Z,26.90
2017-09-28T20:50:25.046Z,27.07
2017-09-28T20:52:52.211Z,28.30
2017-09-28T20:55:18.857Z,24.83
2017-09-28T20:57:45.505Z,26.27
2017-09-28T21:00:12.200Z,26.00
2017-09-28T21:02:38.848Z,26.33
2017-09-28T21:05:05.516Z,24.67
2017-09-28T21:07:32.197Z,25.83
2017-09-28T21:09:58.860Z,24.80
2017-09-28T21:12:25.542Z,25.50
2017-09-28T21:14:52.196Z,25.40
2017-09-28T21:17:18.870Z,25.83
2017-09-28T21:19:45.512Z,25.60
2017-09-28T21:22:12.184Z,25.67
2017-09-28T21:24:38.856Z,26.47
2017-09-28T21:27:05.516Z,25.77
2017-09-28T21:29:32.534Z,27.70
2017-09-28T21:31:59.184Z,26.73
2017-09-28T21:34:25.832Z,29.20
2017-09-28T21:36:52.526Z,26.87
2017-09-28T21:39:19.199Z,28.37
2017-09-28T21:41:46.157Z,28.47
2017-09-28T21:44:12.909Z,26.73
2017-09-28T21:46:39.561Z,29.17
2017-09-28T21:49:06.388Z,27.37
2017-09-28T21:51:33.035Z,30.00
2017-09-28T21:53:59.687Z,29.67
2017-09-28T21:56:26.370Z,28.93
2017-09-28T21:58:53.025Z,26.37
2017-09-28T22:01:19.708Z,25.60
2017-09-28T22:03:46.364Z,25.63
2017-09-28T22:06:13.031Z,24.80
2017-09-28T22:08:39.721Z,26.53
2017-09-28T22:11:06.366Z,28.37
2017-09-28T22:13:33.037Z,27.47
2017-09-28T22:15:59.696Z,31.03
2017-09-28T22:18:26.708Z,29.40
2017-09-28T22:20:53.365Z,25.43
2017-09-28T22:23:20.068Z,28.00
2017-09-28T22:25:46.744Z,28.43
2017-09-28T22:28:13.392Z,26.60
2017-09-28T22:30:40.071Z,27.27
2017-09-28T22:33:06.720Z,27.67
2017-09-28T22:35:33.373Z,24.07
2017-09-28T22:38:00.062Z,25.93
2017-09-28T22:40:26.705Z,25.03
2017-09-28T22:42:53.608Z,24.97
2017-09-28T22:45:20.254Z,23.43
2017-09-28T22:47:46.928Z,25.97
2017-09-28T22:50:13.605Z,27.60
2017-09-28T22:52:40.264Z,25.20
2017-09-28T22:55:07.044Z,27.17
2017-09-28T22:57:33.693Z,27.63
2017-09-28T23:00:00.345Z,26.23
2017-09-28T23:02:27.011Z,26.27
2017-09-28T23:04:53.664Z,28.73
2017-09-28T23:07:20.318Z,27.30
2017-09-28T23:09:47.058Z,27.87
2017-09-28T23:12:13.717Z,26.80
2017-09-28T23:14:40.747Z,28.00
2017-09-28T23:17:07.395Z,26.50
2017-09-28T23:19:34.057Z,26.80
2017-09-28T23:22:00.842Z,25.40
2017-09-28T23:24:27.820Z,28.00
2017-09-28T23:26:54.977Z,27.43
2017-09-28T23:29:21.628Z,30.00
2017-09-28T23:31:48.286Z,26.67
2017-09-28T23:34:14.993Z,26.57
2017-09-28T23:36:42.049Z,26.93
2017-09-28T23:39:08.902Z,27.30
2017-09-28T23:41:35.557Z,26.30
2017-09-28T23:44:02.217Z,27.57
2017-09-28T23:46:29.124Z,26.60
2017-09-28T23:48:55.873Z,26.87
2017-09-28T23:51:22.809Z,28.43
2017-09-28T23:53:49.458Z,28.90
2017-09-28T23:56:16.151Z,29.90
2017-09-28T23:58:42.793Z,28.60
